Time;durP1;ratioP1;P1;durP2;ratioP2;P2;SDS_P1;SDS_P2;PMS_P1;PMS_P2;Temp;Humidity;BMP_temperature;BMP_pressure;BME280_temperature;BME280_humidity;BME280_pressure;Samples;Min_cycle;Max_cycle;Signal;HPM_P1;HPM_P2
2021/07/20 00:00:11;;;;;;;30.75;13.60;;;;;;;15.62;100.00;102069.03;5211328;28;20025;-79
2021/07/20 00:02:45;;;;;;;27.17;12.25;;;;;;;15.65;100.00;102068.72;5220438;28;20442;-79
2021/07/20 00:05:21;;;;;;;29.40;13.60;;;;;;;15.61;100.00;102063.78;5191402;28;20021;-79
2021/07/20 00:08:01;;;;;;;24.90;12.93;;;;;;;15.56;100.00;102069.69;5194309;28;20395;-79
2021/07/20 00:10:36;;;;;;;26.77;12.32;;;;;;;15.61;100.00;102066.47;5190755;28;20029;-80
2021/07/20 00:13:07;;;;;;;27.87;13.37;;;;;;;15.64;100.00;102061.59;5210253;28;20045;-79
2021/07/20 00:15:38;;;;;;;30.88;12.70;;;;;;;15.69;100.00;102055.69;5215050;28;20060;-79
2021/07/20 00:18:12;;;;;;;26.55;13.20;;;;;;;15.61;100.00;102056.50;5215729;28;20032;-79
2021/07/20 00:20:44;;;;;;;31.25;13.15;;;;;;;15.58;100.00;102064.97;5209064;28;20074;-80
2021/07/20 00:23:15;;;;;;;28.02;13.07;;;;;;;15.48;100.00;102065.13;5191313;28;20033;-80
2021/07/20 00:25:48;;;;;;;32.25;13.18;;;;;;;15.50;100.00;102057.69;5184741;28;20028;-79
2021/07/20 00:28:20;;;;;;;29.23;13.25;;;;;;;15.57;100.00;102062.44;5215198;28;20025;-79
2021/07/20 00:30:50;;;;;;;28.33;13.07;;;;;;;15.55;100.00;102060.72;5212322;28;20025;-79
2021/07/20 00:33:21;;;;;;;26.73;11.93;;;;;;;15.50;100.00;102062.25;5203610;28;20025;-79
2021/07/20 00:35:51;;;;;;;27.45;12.85;;;;;;;15.41;100.00;102063.25;5214558;28;20029;-79
2021/07/20 00:38:22;;;;;;;31.10;12.93;;;;;;;15.28;100.00;102061.91;5191467;28;20025;-79
2021/07/20 00:40:53;;;;;;;30.50;12.65;;;;;;;15.22;100.00;102061.75;5207836;28;20492;-79
2021/07/20 00:43:23;;;;;;;26.30;11.88;;;;;;;15.15;100.00;102063.41;5184240;28;20030;-80
2021/07/20 00:45:54;;;;;;;29.85;12.95;;;;;;;15.14;100.00;102067.13;5215141;28;20025;-79
2021/07/20 00:48:24;;;;;;;27.13;12.57;;;;;;;15.06;100.00;102059.88;5210767;28;20475;-79
2021/07/20 00:50:55;;;;;;;27.13;12.90;;;;;;;14.97;100.00;102052.75;5208359;28;20057;-79
2021/07/20 00:53:25;;;;;;;25.63;11.95;;;;;;;14.96;100.00;102056.44;5216162;28;20026;-79
2021/07/20 00:55:56;;;;;;;22.45;10.80;;;;;;;15.01;100.00;102056.81;5219386;28;20167;-79
2021/07/20 00:58:27;;;;;;;27.17;12.20;;;;;;;14.99;100.00;102056.97;5216776;28;20407;-79
2021/07/20 01:00:58;;;;;;;30.58;12.85;;;;;;;14.96;100.00;102057.31;5193935;28;20456;-79
2021/07/20 01:03:31;;;;;;;29.73;11.65;;;;;;;14.95;100.00;102052.91;5225702;28;20079;-79
2021/07/20 01:06:03;;;;;;;26.85;12.38;;;;;;;14.91;100.00;102075.00;5216563;28;20038;-79
2021/07/20 01:08:34;;;;;;;32.47;11.30;;;;;;;14.90;100.00;102071.47;5219172;28;20325;-79
2021/07/20 01:11:05;;;;;;;27.40;11.45;;;;;;;14.88;100.00;102061.84;5212743;28;20110;-79
2021/07/20 01:13:53;;;;;;;28.08;11.88;;;;;;;14.84;100.00;102072.13;5211849;28;20017;-79
2021/07/20 01:16:24;;;;;;;25.48;12.73;;;;;;;14.81;100.00;102077.00;5214448;28;20037;-79
2021/07/20 01:18:58;;;;;;;28.60;11.48;;;;;;;14.78;100.00;102070.09;5218307;28;20041;-79
2021/07/20 01:21:33;;;;;;;24.67;11.45;;;;;;;14.76;100.00;102075.66;5218120;28;20070;-79
2021/07/20 01:24:07;;;;;;;28.00;12.37;;;;;;;14.77;100.00;102074.66;5213754;28;20471;-79
2021/07/20 01:26:57;;;;;;;26.83;12.77;;;;;;;14.74;100.00;102076.81;5184200;28;20029;-79
2021/07/20 01:29:30;;;;;;;29.73;11.73;;;;;;;14.72;100.00;102081.56;5211528;28;20030;-79
2021/07/20 01:32:03;;;;;;;32.03;11.85;;;;;;;14.67;100.00;102073.09;5201100;28;20074;-79
2021/07/20 01:34:34;;;;;;;27.35;11.88;;;;;;;14.63;100.00;102083.38;5205595;28;20025;-79
2021/07/20 01:37:06;;;;;;;23.40;11.35;;;;;;;14.65;100.00;102081.34;5217745;28;20098;-79
2021/07/20 01:39:40;;;;;;;26.98;11.43;;;;;;;14.71;100.00;102077.19;5217008;28;20025;-79
2021/07/20 01:42:13;;;;;;;25.67;12.47;;;;;;;14.71;100.00;102074.47;5198035;28;20032;-79
2021/07/20 01:44:45;;;;;;;24.02;11.13;;;;;;;14.71;100.00;102069.06;5212061;28;20032;-79
2021/07/20 01:47:18;;;;;;;29.95;12.48;;;;;;;14.70;100.00;102080.84;5213346;28;20071;-79
2021/07/20 01:49:49;;;;;;;32.60;12.60;;;;;;;14.67;100.00;102075.81;5217017;28;20030;-79
2021/07/20 01:52:20;;;;;;;30.42;12.70;;;;;;;14.66;100.00;102084.88;5200437;28;20017;-79
2021/07/20 01:54:51;;;;;;;29.38;12.55;;;;;;;14.67;100.00;102076.66;5212496;28;20142;-79
2021/07/20 01:57:22;;;;;;;29.00;12.30;;;;;;;14.71;100.00;102079.88;5212088;28;20025;-79
2021/07/20 01:59:54;;;;;;;28.80;12.48;;;;;;;14.78;100.00;102072.78;5214860;28;20025;-80
2021/07/20 02:02:38;;;;;;;28.83;12.30;;;;;;;14.86;100.00;102078.22;5219695;28;20032;-79
2021/07/20 02:08:26;;;;;;;29.30;12.20;;;;;;;14.92;100.00;102079.44;5196165;28;20037;-79
2021/07/20 02:11:01;;;;;;;29.45;12.10;;;;;;;14.96;100.00;102069.97;5218346;28;20580;-79
2021/07/20 02:13:41;;;;;;;29.55;12.60;;;;;;;14.95;100.00;102071.81;5211214;28;20029;-80
2021/07/20 02:16:14;;;;;;;26.15;12.95;;;;;;;14.97;100.00;102071.66;5214265;28;20106;-79
2021/07/20 02:18:50;;;;;;;24.23;12.02;;;;;;;14.93;100.00;102073.00;5209542;28;20506;-79
2021/07/20 02:21:22;;;;;;;29.33;12.27;;;;;;;14.87;100.00;102074.50;5206212;28;20021;-79
2021/07/20 02:23:53;;;;;;;31.52;12.05;;;;;;;14.75;100.00;102078.50;5217133;28;20025;-79
2021/07/20 02:26:25;;;;;;;29.63;12.57;;;;;;;14.66;100.00;102077.66;5217453;28;20029;-79
2021/07/20 02:28:56;;;;;;;28.15;13.07;;;;;;;14.63;100.00;102077.97;5213029;28;20403;-79
2021/07/20 02:31:27;;;;;;;28.83;13.27;;;;;;;14.56;100.00;102081.47;5210690;28;20021;-79
2021/07/20 02:34:00;;;;;;;28.80;12.48;;;;;;;14.49;100.00;102079.44;5195711;28;20029;-79
2021/07/20 02:36:31;;;;;;;26.08;13.23;;;;;;;14.48;100.00;102083.16;5216414;28;20030;-80
2021/07/20 02:39:04;;;;;;;30.15;12.82;;;;;;;14.47;100.00;102075.19;5200896;28;20068;-79
2021/07/20 02:41:36;;;;;;;31.27;13.90;;;;;;;14.43;100.00;102073.81;5217395;28;20543;-79
2021/07/20 02:44:07;;;;;;;28.13;12.90;;;;;;;14.40;100.00;102080.34;5217028;28;20025;-79
2021/07/20 02:46:41;;;;;;;33.20;13.73;;;;;;;14.39;100.00;102081.38;5194041;28;20052;-79
2021/07/20 02:49:14;;;;;;;34.53;12.18;;;;;;;14.45;100.00;102077.19;5209702;28;20043;-79
2021/07/20 02:51:46;;;;;;;30.05;13.43;;;;;;;14.54;100.00;102078.94;5197268;28;20026;-79
2021/07/20 02:54:18;;;;;;;25.73;11.90;;;;;;;14.56;100.00;102081.47;5216575;28;20455;-79
2021/07/20 02:56:50;;;;;;;29.65;13.15;;;;;;;14.55;100.00;102079.78;5206670;28;20033;-80
2021/07/20 02:59:25;;;;;;;28.02;13.55;;;;;;;14.50;100.00;102074.88;5215510;28;20032;-79
2021/07/20 03:01:59;;;;;;;30.35;12.63;;;;;;;14.47;100.00;102084.16;5216607;28;20044;-79
2021/07/20 03:04:30;;;;;;;32.60;13.00;;;;;;;14.46;100.00;102078.91;5205411;28;20075;-79
2021/07/20 03:07:04;;;;;;;31.63;13.90;;;;;;;14.42;100.00;102074.81;5208410;28;20037;-79
2021/07/20 03:09:38;;;;;;;28.55;12.68;;;;;;;14.43;100.00;102069.25;5213040;28;20137;-80
2021/07/20 03:12:12;;;;;;;32.88;13.00;;;;;;;14.41;100.00;102073.13;5215931;28;20021;-79
2021/07/20 03:14:43;;;;;;;28.42;12.93;;;;;;;14.46;100.00;102063.53;5213928;28;20047;-79
2021/07/20 03:17:14;;;;;;;35.58;13.90;;;;;;;14.45;100.00;102061.81;5210592;28;20029;-79
2021/07/20 03:19:47;;;;;;;29.35;13.23;;;;;;;14.30;100.00;102063.44;5210130;28;20025;-79
2021/07/20 03:22:23;;;;;;;29.02;13.20;;;;;;;14.22;100.00;102071.50;5210282;28;20050;-79
2021/07/20 03:24:57;;;;;;;29.08;13.70;;;;;;;14.16;100.00;102064.91;5192413;28;20373;-79
2021/07/20 03:27:31;;;;;;;31.13;13.48;;;;;;;14.09;100.00;102063.84;5196672;28;20411;-80
2021/07/20 03:30:05;;;;;;;34.00;13.10;;;;;;;14.00;100.00;102064.78;5215268;28;20044;-79
2021/07/20 03:32:37;;;;;;;31.35;13.85;;;;;;;13.96;100.00;102066.97;5202387;28;20079;-80
2021/07/20 03:35:08;;;;;;;39.75;14.50;;;;;;;13.94;100.00;102060.88;5198289;28;20033;-79
2021/07/20 03:37:39;;;;;;;35.17;13.85;;;;;;;13.86;100.00;102066.25;5216294;28;20025;-79
2021/07/20 03:40:10;;;;;;;34.85;14.55;;;;;;;13.79;100.00;102065.16;5208972;28;20437;-79
2021/07/20 03:42:41;;;;;;;34.08;14.60;;;;;;;13.71;100.00;102060.56;5209673;28;20037;-79
2021/07/20 03:45:13;;;;;;;36.03;14.18;;;;;;;13.66;100.00;102059.34;5214693;28;20025;-79
2021/07/20 03:47:44;;;;;;;33.50;14.80;;;;;;;13.65;100.00;102061.19;5198435;28;20029;-79
2021/07/20 03:50:17;;;;;;;37.08;14.77;;;;;;;13.64;100.00;102056.78;5211440;28;20065;-79
2021/07/20 03:52:49;;;;;;;34.75;14.80;;;;;;;13.60;100.00;102060.78;5209551;28;20399;-79
2021/07/20 03:55:19;;;;;;;36.25;16.00;;;;;;;13.54;100.00;102053.34;5211432;28;20470;-79
2021/07/20 03:57:51;;;;;;;31.23;14.38;;;;;;;13.51;100.00;102063.63;5190925;28;20082;-79
2021/07/20 04:00:22;;;;;;;38.47;13.90;;;;;;;13.46;100.00;102062.22;5208232;28;20034;-79
2021/07/20 04:05:45;;;;;;;40.03;15.57;;;;;;;13.46;100.00;102053.28;5218327;28;20079;-79
2021/07/20 04:08:18;;;;;;;38.00;16.02;;;;;;;13.43;100.00;102058.97;5197302;28;20029;-79
2021/07/20 04:10:51;;;;;;;33.10;14.75;;;;;;;13.39;100.00;102063.84;5207866;28;20506;-79
2021/07/20 04:13:22;;;;;;;34.58;15.68;;;;;;;13.39;100.00;102065.69;5209173;28;20466;-79
2021/07/20 04:16:03;;;;;;;36.33;16.10;;;;;;;13.43;100.00;102072.47;5214858;28;20108;-80
2021/07/20 04:18:36;;;;;;;38.63;15.70;;;;;;;13.44;100.00;102061.50;5198136;28;20045;-79
2021/07/20 04:21:07;;;;;;;41.00;16.00;;;;;;;13.42;100.00;102070.78;5212028;28;20109;-79
2021/07/20 04:23:38;;;;;;;40.13;17.60;;;;;;;13.41;100.00;102077.19;5191227;28;20025;-79
2021/07/20 04:26:09;;;;;;;36.78;16.38;;;;;;;13.41;100.00;102077.19;5211895;28;20025;-79
2021/07/20 04:28:40;;;;;;;41.28;15.48;;;;;;;13.42;100.00;102079.72;5219980;28;20515;-79
2021/07/20 04:31:12;;;;;;;42.22;16.60;;;;;;;13.51;100.00;102072.53;5200795;28;20025;-79
2021/07/20 04:33:46;;;;;;;36.72;16.02;;;;;;;13.65;100.00;102076.50;5201380;28;20037;-79
2021/07/20 04:36:19;;;;;;;37.13;15.93;;;;;;;13.73;100.00;102076.59;5202121;28;20040;-79
2021/07/20 04:38:51;;;;;;;44.55;17.08;;;;;;;13.80;100.00;102076.78;5198235;28;20052;-79
2021/07/20 04:41:21;;;;;;;41.95;16.95;;;;;;;13.85;100.00;102079.88;5212302;28;20040;-79
2021/07/20 04:43:52;;;;;;;41.25;17.77;;;;;;;13.92;100.00;102072.84;5198066;28;20029;-79
2021/07/20 04:46:23;;;;;;;39.38;15.95;;;;;;;13.93;100.00;102075.38;5219324;28;20029;-79
2021/07/20 04:48:53;;;;;;;31.73;14.93;;;;;;;14.01;100.00;102077.31;5218937;28;20120;-79
2021/07/20 04:51:25;;;;;;;38.50;15.20;;;;;;;14.08;100.00;102078.34;5212035;28;20033;-79
2021/07/20 04:53:56;;;;;;;33.25;14.55;;;;;;;14.18;100.00;102078.22;5211946;28;20045;-79
2021/07/20 04:56:26;;;;;;;42.45;17.17;;;;;;;14.20;100.00;102077.06;5208692;28;20104;-79
2021/07/20 04:58:57;;;;;;;34.47;14.85;;;;;;;14.33;100.00;102089.28;5207069;28;20028;-78
2021/07/20 05:01:29;;;;;;;43.58;16.90;;;;;;;14.50;100.00;102083.81;5215989;28;20086;-79
2021/07/20 05:04:02;;;;;;;38.30;16.08;;;;;;;14.60;100.00;102080.16;5204586;28;20025;-79
2021/07/20 05:06:35;;;;;;;38.40;16.55;;;;;;;14.66;100.00;102084.88;5194991;28;20040;-79
2021/07/20 05:09:06;;;;;;;55.85;18.45;;;;;;;14.72;100.00;102085.09;5217775;28;20109;-79
2021/07/20 05:11:37;;;;;;;44.22;17.08;;;;;;;14.89;100.00;102077.03;5218740;28;20496;-79
2021/07/20 05:14:08;;;;;;;37.67;16.40;;;;;;;15.16;100.00;102082.19;5195124;28;20116;-79
2021/07/20 05:16:39;;;;;;;43.65;15.68;;;;;;;15.29;100.00;102073.56;5212998;28;20036;-79
2021/07/20 05:19:11;;;;;;;47.78;18.33;;;;;;;15.31;100.00;102076.94;5216975;28;21002;-79
2021/07/20 05:21:44;;;;;;;38.78;16.23;;;;;;;15.48;100.00;102085.94;5218992;28;20086;-80
2021/07/20 05:24:16;;;;;;;42.65;17.35;;;;;;;15.56;100.00;102083.22;5215303;28;20024;-79
2021/07/20 05:26:48;;;;;;;47.55;17.75;;;;;;;15.51;100.00;102082.88;5212669;28;20066;-79
2021/07/20 05:29:20;;;;;;;48.03;18.25;;;;;;;15.59;100.00;102087.44;5212883;28;20056;-79
2021/07/20 05:31:53;;;;;;;50.55;18.83;;;;;;;15.75;100.00;102091.00;5218559;28;20026;-79
2021/07/20 05:34:23;;;;;;;52.72;19.80;;;;;;;16.36;100.00;102099.53;5218099;28;20021;-79
2021/07/20 05:36:55;;;;;;;43.63;16.20;;;;;;;17.34;100.00;102090.94;5212675;28;20101;-79
2021/07/20 05:39:25;;;;;;;40.15;15.95;;;;;;;18.60;100.00;102106.53;5210964;28;20025;-79
2021/07/20 05:41:56;;;;;;;39.33;15.10;;;;;;;19.08;100.00;102113.25;5216643;28;20051;-80
2021/07/20 05:44:27;;;;;;;38.00;14.35;;;;;;;18.61;100.00;102113.66;5200612;28;20025;-80
2021/07/20 05:46:58;;;;;;;43.92;15.27;;;;;;;18.00;100.00;102107.53;5215165;28;20071;-79
2021/07/20 05:49:29;;;;;;;38.10;15.95;;;;;;;17.52;100.00;102109.63;5210815;28;20025;-80
2021/07/20 05:52:00;;;;;;;41.78;16.25;;;;;;;17.20;100.00;102111.53;5213925;28;20066;-80
2021/07/20 05:54:32;;;;;;;46.33;15.68;;;;;;;17.29;100.00;102121.31;5217973;28;20125;-79
2021/07/20 05:57:04;;;;;;;43.08;15.98;;;;;;;17.45;100.00;102116.81;5190005;28;20400;-79
2021/07/20 05:59:38;;;;;;;40.78;16.58;;;;;;;17.44;100.00;102117.84;5210288;28;20551;-79
2021/07/20 06:02:11;;;;;;;40.05;16.00;;;;;;;17.45;100.00;102122.22;5194385;28;20025;-79
2021/07/20 06:04:43;;;;;;;48.08;17.60;;;;;;;17.41;100.00;102127.16;5225091;28;20025;-79
2021/07/20 06:07:14;;;;;;;39.55;16.98;;;;;;;17.28;100.00;102127.78;5209425;28;20045;-80
2021/07/20 06:09:46;;;;;;;42.67;16.30;;;;;;;17.23;100.00;102123.91;5212474;28;20109;-79
2021/07/20 06:12:19;;;;;;;37.97;14.20;;;;;;;17.38;100.00;102121.28;5200365;28;20021;-80
2021/07/20 06:14:51;;;;;;;39.08;15.60;;;;;;;17.46;100.00;102124.75;5217017;28;20083;-80
2021/07/20 06:17:23;;;;;;;32.80;14.98;;;;;;;17.46;100.00;102130.19;5211809;28;20376;-80
2021/07/20 06:19:55;;;;;;;36.65;14.75;;;;;;;17.58;100.00;102126.03;5191401;28;20104;-80
2021/07/20 06:22:32;;;;;;;30.80;13.43;;;;;;;17.67;100.00;102129.53;5212410;28;20036;-80
2021/07/20 06:25:03;;;;;;;35.90;14.30;;;;;;;17.75;100.00;102136.78;5194392;28;20045;-80
2021/07/20 06:27:35;;;;;;;34.47;15.07;;;;;;;17.83;100.00;102125.88;5214251;28;20386;-80
2021/07/20 06:30:06;;;;;;;30.15;14.85;;;;;;;18.14;100.00;102135.75;5215727;28;20017;-79
2021/07/20 06:32:37;;;;;;;28.17;13.65;;;;;;;18.28;100.00;102133.06;5216154;28;20040;-80
2021/07/20 06:35:11;;;;;;;31.88;14.77;;;;;;;18.30;100.00;102133.72;5211299;28;20032;-80
2021/07/20 06:37:46;;;;;;;28.25;13.63;;;;;;;18.84;100.00;102135.34;5211206;28;20116;-80
2021/07/20 06:40:18;;;;;;;33.75;14.10;;;;;;;19.27;100.00;102128.09;5185402;28;20387;-80
2021/07/20 06:42:50;;;;;;;30.17;13.48;;;;;;;19.80;100.00;102130.53;5216858;28;20555;-80
2021/07/20 06:45:20;;;;;;;30.05;13.05;;;;;;;20.16;100.00;102127.69;5213470;28;20033;-80
2021/07/20 06:47:52;;;;;;;31.00;14.80;;;;;;;20.81;100.00;102139.19;5211417;28;20035;-80
2021/07/20 06:50:24;;;;;;;27.42;13.43;;;;;;;20.74;100.00;102131.00;5193589;28;20021;-80
2021/07/20 06:52:54;;;;;;;31.55;13.40;;;;;;;20.64;100.00;102139.53;5199106;28;20033;-80
2021/07/20 06:55:26;;;;;;;29.02;13.73;;;;;;;20.63;100.00;102142.44;5216307;28;20028;-80
2021/07/20 06:57:58;;;;;;;28.30;12.98;;;;;;;20.62;100.00;102146.22;5210751;28;20399;-80
2021/07/20 07:00:30;;;;;;;27.23;12.90;;;;;;;20.34;100.00;102147.09;5191609;28;20033;-80
2021/07/20 07:03:01;;;;;;;26.30;13.48;;;;;;;20.17;100.00;102141.09;5223583;28;20495;-80
2021/07/20 07:05:33;;;;;;;31.67;14.18;;;;;;;19.83;100.00;102143.75;5218327;28;20020;-80
2021/07/20 07:08:06;;;;;;;28.73;14.18;;;;;;;19.93;100.00;102144.28;5213873;28;20078;-80
2021/07/20 07:10:37;;;;;;;28.45;12.65;;;;;;;19.88;100.00;102141.28;5204635;28;20071;-80
2021/07/20 07:13:08;;;;;;;30.25;13.85;;;;;;;19.86;100.00;102138.75;5215257;28;20029;-79
2021/07/20 07:15:39;;;;;;;30.08;12.98;;;;;;;19.84;100.00;102150.91;5210289;28;20023;-80
2021/07/20 07:18:10;;;;;;;28.92;13.20;;;;;;;19.76;100.00;102148.28;5210447;28;20055;-79
2021/07/20 07:20:42;;;;;;;27.15;13.70;;;;;;;19.84;100.00;102146.28;5214536;28;20033;-80
2021/07/20 07:23:14;;;;;;;29.05;13.13;;;;;;;20.00;100.00;102152.50;5216323;28;20330;-80
2021/07/20 07:25:52;;;;;;;30.25;13.38;;;;;;;19.98;100.00;102151.81;5203467;28;20022;-79
2021/07/20 07:28:23;;;;;;;29.50;14.10;;;;;;;20.01;100.00;102157.72;5216238;28;20508;-80
2021/07/20 07:30:55;;;;;;;25.02;12.43;;;;;;;20.34;100.00;102158.00;5213114;28;20028;-80
2021/07/20 07:33:26;;;;;;;29.10;12.95;;;;;;;20.39;100.00;102166.41;5209764;28;20025;-80
2021/07/20 07:35:57;;;;;;;30.08;14.35;;;;;;;20.21;100.00;102157.88;5193021;28;20022;-79
2021/07/20 07:38:28;;;;;;;26.08;13.40;;;;;;;20.48;100.00;102163.53;5216290;28;20428;-79
2021/07/20 07:40:59;;;;;;;26.88;12.82;;;;;;;20.57;100.00;102155.00;5215037;28;20073;-80
2021/07/20 07:43:31;;;;;;;26.67;13.80;;;;;;;20.53;100.00;102161.06;5210723;28;20387;-80
2021/07/20 07:46:03;;;;;;;28.48;13.50;;;;;;;20.46;100.00;102154.72;5209833;28;20025;-80
2021/07/20 07:48:40;;;;;;;28.90;14.25;;;;;;;20.36;100.00;102158.63;5213688;28;20025;-79
2021/07/20 07:51:11;;;;;;;28.25;13.40;;;;;;;20.31;100.00;102160.25;5214627;28;20025;-79
2021/07/20 07:53:42;;;;;;;26.05;13.05;;;;;;;20.63;100.00;102156.97;5214267;28;20052;-79
2021/07/20 07:56:14;;;;;;;31.27;13.38;;;;;;;20.75;100.00;102154.50;5206294;28;20037;-79
2021/07/20 07:58:45;;;;;;;27.98;13.30;;;;;;;20.75;100.00;102150.94;5197646;28;20033;-80
2021/07/20 08:01:16;;;;;;;24.67;11.60;;;;;;;20.87;100.00;102152.03;5207503;28;20033;-80
2021/07/20 08:03:49;;;;;;;22.73;12.07;;;;;;;21.00;100.00;102153.97;5222542;28;20092;-79
2021/07/20 08:06:21;;;;;;;24.38;12.93;;;;;;;20.86;100.00;102162.09;5210836;28;20091;-80
2021/07/20 08:08:55;;;;;;;21.27;11.23;;;;;;;20.62;100.00;102157.13;5216105;28;20349;-79
2021/07/20 08:11:27;;;;;;;26.55;12.80;;;;;;;20.75;100.00;102162.66;5194851;28;20024;-79
2021/07/20 08:14:01;;;;;;;25.38;12.00;;;;;;;20.85;100.00;102160.41;5209430;28;20025;-80
2021/07/20 08:16:37;;;;;;;24.33;11.82;;;;;;;20.92;100.00;102164.00;5209427;28;20020;-79
2021/07/20 08:19:08;;;;;;;20.80;11.05;;;;;;;21.02;100.00;102162.78;5213295;28;20025;-80
2021/07/20 08:21:39;;;;;;;22.27;10.57;;;;;;;21.30;100.00;102158.09;5215988;28;20025;-80
2021/07/20 08:24:11;;;;;;;25.45;11.43;;;;;;;21.35;100.00;102160.22;5212607;28;20032;-79
2021/07/20 08:26:49;;;;;;;22.13;10.90;;;;;;;21.67;100.00;102159.44;5208834;28;20029;-80
2021/07/20 08:29:25;;;;;;;25.90;12.88;;;;;;;21.86;100.00;102160.50;5209530;28;20464;-79
2021/07/20 08:32:02;;;;;;;20.75;11.15;;;;;;;21.99;100.00;102154.22;5205210;28;20041;-80
2021/07/20 08:34:34;;;;;;;19.33;10.07;;;;;;;21.96;100.00;102155.47;5209156;28;20025;-80
2021/07/20 08:37:05;;;;;;;23.85;10.50;;;;;;;22.10;100.00;102159.03;5214295;28;20091;-80
2021/07/20 08:39:37;;;;;;;20.60;10.38;;;;;;;22.28;100.00;102155.66;5203548;28;20064;-81
2021/07/20 08:42:20;;;;;;;26.15;12.52;;;;;;;22.00;100.00;102152.31;5212399;28;20115;-80
2021/07/20 08:45:14;;;;;;;28.00;11.60;;;;;;;22.13;100.00;102155.91;5215153;28;20017;-80
2021/07/20 08:48:01;;;;;;;25.83;11.65;;;;;;;22.57;100.00;102153.53;5215325;28;20086;-80
2021/07/20 08:50:38;;;;;;;23.30;10.77;;;;;;;22.62;100.00;102150.97;5213557;28;20036;-80
2021/07/20 08:53:34;;;;;;;20.13;10.25;;;;;;;22.68;93.17;102152.84;5215045;28;20033;-80
2021/07/20 08:56:06;;;;;;;20.42;11.10;;;;;;;22.55;96.92;102152.91;5214697;28;20037;-80
2021/07/20 08:58:47;;;;;;;24.58;10.35;;;;;;;22.37;88.98;102151.66;5213784;28;20020;-80
2021/07/20 09:01:25;;;;;;;21.90;10.05;;;;;;;22.34;97.75;102145.78;5213537;28;20052;-80
2021/07/20 09:04:15;;;;;;;18.00;9.55;;;;;;;22.54;100.00;102159.41;5217285;28;20086;-80
2021/07/20 09:06:51;;;;;;;19.98;9.55;;;;;;;22.57;100.00;102156.25;5219722;28;20108;-80
2021/07/20 09:09:27;;;;;;;21.83;11.02;;;;;;;22.67;87.45;102162.97;5203207;28;20112;-80
2021/07/20 09:12:04;;;;;;;19.17;10.45;;;;;;;22.57;90.39;102159.81;5216458;28;20024;-80
2021/07/20 09:14:37;;;;;;;23.83;11.98;;;;;;;22.55;100.00;102156.47;5216179;28;20166;-80
2021/07/20 09:17:12;;;;;;;22.73;11.25;;;;;;;22.75;100.00;102153.69;5212394;28;20029;-80
2021/07/20 09:19:54;;;;;;;25.67;11.88;;;;;;;23.00;95.09;102159.31;5194762;28;20028;-80
2021/07/20 09:22:36;;;;;;;18.60;10.35;;;;;;;22.95;100.00;102153.66;5213848;28;20113;-80
2021/07/20 09:25:07;;;;;;;18.63;9.85;;;;;;;23.30;93.49;102165.06;5212496;28;20032;-79
2021/07/20 09:27:47;;;;;;;19.77;10.77;;;;;;;23.36;91.79;102163.34;5214443;28;20403;-80
2021/07/20 09:30:24;;;;;;;20.45;10.90;;;;;;;23.36;88.99;102161.44;5217330;28;20036;-80
2021/07/20 09:33:08;;;;;;;21.58;10.60;;;;;;;23.33;100.00;102159.13;5200828;28;20036;-80
2021/07/20 09:35:50;;;;;;;22.80;10.77;;;;;;;23.62;81.50;102165.06;5205496;28;20607;-81
2021/07/20 09:38:51;;;;;;;20.40;10.48;;;;;;;23.50;89.53;102156.72;5201452;28;20455;-80
2021/07/20 09:41:21;;;;;;;23.27;10.77;;;;;;;23.58;91.75;102161.91;5216916;28;20028;-80
2021/07/20 09:44:00;;;;;;;18.23;10.27;;;;;;;23.71;88.40;102161.88;5216233;28;20032;-80
2021/07/20 09:46:43;;;;;;;22.55;10.88;;;;;;;24.04;84.70;102158.84;5211781;28;20078;-81
2021/07/20 09:49:20;;;;;;;17.70;10.02;;;;;;;24.11;84.36;102153.31;5193237;28;20451;-80
2021/07/20 09:51:59;;;;;;;17.67;9.82;;;;;;;24.03;76.80;102154.44;5215764;28;20029;-81
2021/07/20 09:54:48;;;;;;;19.42;10.13;;;;;;;23.89;90.23;102152.88;5217772;28;20025;-80
2021/07/20 09:57:26;;;;;;;24.77;11.85;;;;;;;23.95;87.12;102140.19;5206859;28;20109;-80
2021/07/20 10:00:18;;;;;;;22.45;10.88;;;;;;;24.13;88.33;102147.59;5213606;28;20029;-80
2021/07/20 10:03:10;;;;;;;21.23;11.02;;;;;;;24.34;95.32;102154.56;5193594;28;20122;-80
2021/07/20 10:05:51;;;;;;;21.17;10.32;;;;;;;24.47;77.89;102149.81;5218498;28;20033;-80
2021/07/20 10:08:42;;;;;;;20.02;10.98;;;;;;;24.52;90.85;102146.41;5201123;28;20116;-80
2021/07/20 10:11:20;;;;;;;18.92;10.38;;;;;;;24.39;77.33;102139.16;5213903;28;20100;-80
2021/07/20 10:14:02;;;;;;;18.55;10.30;;;;;;;24.99;81.86;102144.75;5218092;28;20499;-80
2021/07/20 10:16:48;;;;;;;21.23;10.38;;;;;;;25.08;71.40;102144.50;5200111;28;20032;-80
2021/07/20 10:19:34;;;;;;;20.02;10.48;;;;;;;24.83;88.05;102134.44;5213308;28;20079;-80
2021/07/20 10:22:10;;;;;;;20.65;11.00;;;;;;;25.15;78.85;102134.25;5211495;28;20032;-80
2021/07/20 10:24:49;;;;;;;18.80;11.07;;;;;;;24.86;81.52;102130.41;5192267;28;20112;-80
2021/07/20 10:27:28;;;;;;;19.90;10.88;;;;;;;25.18;77.78;102129.13;5198702;28;20121;-80
2021/07/20 10:30:02;;;;;;;18.38;11.10;;;;;;;25.44;70.79;102122.41;5215923;28;20036;-80
2021/07/20 10:32:51;;;;;;;18.70;10.50;;;;;;;25.28;73.86;102125.84;5215740;28;20570;-80
2021/07/20 10:35:27;;;;;;;17.20;10.38;;;;;;;25.39;63.13;102122.28;5216951;28;20025;-80
2021/07/20 10:38:00;;;;;;;18.73;10.18;;;;;;;24.98;65.10;102129.38;5217763;28;20033;-80
2021/07/20 10:40:33;;;;;;;18.88;10.10;;;;;;;24.99;81.73;102121.97;5213620;28;20104;-80
2021/07/20 10:43:11;;;;;;;20.10;11.25;;;;;;;25.18;64.77;102123.66;5211031;28;20024;-80
2021/07/20 10:45:46;;;;;;;22.27;10.73;;;;;;;25.35;71.07;102117.47;5211237;28;20399;-81
2021/07/20 10:48:19;;;;;;;;;;;;;;;25.37;66.82;102121.69;5212791;28;20510;-80
2021/07/20 10:51:00;;;;;;;21.40;10.63;;;;;;;25.15;64.94;102117.78;5209585;28;20012;-80
2021/07/20 10:53:48;;;;;;;23.77;11.93;;;;;;;24.91;71.24;102119.56;5213107;28;20017;-81
2021/07/20 10:56:32;;;;;;;21.65;10.77;;;;;;;24.66;67.89;102117.75;5189105;28;20026;-80
2021/07/20 10:59:11;;;;;;;18.90;10.93;;;;;;;24.32;72.73;102119.16;5198168;28;20032;-80
2021/07/20 11:01:55;;;;;;;22.70;10.57;;;;;;;24.78;83.60;102123.31;5203414;28;20029;-80
2021/07/20 11:04:49;;;;;;;22.35;11.38;;;;;;;25.23;76.87;102115.53;5205445;28;20021;-80
2021/07/20 11:07:28;;;;;;;17.77;10.10;;;;;;;25.15;69.01;102115.03;5208160;28;20096;-80
2021/07/20 11:10:05;;;;;;;21.05;10.73;;;;;;;25.24;72.61;102113.63;5192093;28;20025;-80
2021/07/20 11:12:40;;;;;;;21.48;11.32;;;;;;;25.35;73.21;102112.81;5193342;28;20079;-80
2021/07/20 11:15:12;;;;;;;25.83;11.32;;;;;;;25.31;72.85;102108.91;5192649;28;20026;-80
2021/07/20 11:17:44;;;;;;;21.90;11.23;;;;;;;25.30;76.12;102112.69;5214596;28;20029;-81
2021/07/20 11:20:19;;;;;;;19.48;10.60;;;;;;;25.27;70.43;102114.00;5215642;28;20029;-80
2021/07/20 11:22:52;;;;;;;22.75;11.48;;;;;;;25.50;70.80;102104.16;5214606;28;20039;-81
2021/07/20 11:25:23;;;;;;;20.88;11.23;;;;;;;25.24;65.99;102099.91;5192684;28;20483;-80
2021/07/20 11:27:57;;;;;;;20.08;10.98;;;;;;;25.27;70.01;102102.19;5223815;28;20029;-81
2021/07/20 11:30:31;;;;;;;21.13;11.45;;;;;;;25.39;69.78;102108.53;5208477;28;20063;-80
2021/07/20 11:33:05;;;;;;;19.73;10.73;;;;;;;25.34;66.59;102110.31;5210100;28;20108;-80
2021/07/20 11:35:39;;;;;;;;;;;;;;;25.27;67.33;102107.69;5215001;28;20148;-79
2021/07/20 11:38:13;;;;;;;23.27;11.18;;;;;;;25.22;70.18;102102.06;5216567;28;19909;-80
2021/07/20 11:40:53;;;;;;;21.00;10.53;;;;;;;25.32;66.45;102102.31;5213992;28;20418;-80